sensor_id;sensor_type;location;lat;lon;timestamp;P1;durP1;ratioP1;P2;durP2;ratioP2
7493;SDS011;3788;49.902;8.590;2023-04-15T00:00:57;2.10;;;1.93;;
7493;SDS011;3788;49.902;8.590;2023-04-15T00:03:24;2.97;;;2.73;;
7493;SDS011;3788;49.902;8.590;2023-04-15T00:05:50;4.07;;;2.20;;
7493;SDS011;3788;49.902;8.590;2023-04-15T00:08:18;2.60;;;1.90;;
7493;SDS011;3788;49.902;8.590;2023-04-15T00:10:45;3.03;;;2.50;;
7493;SDS011;3788;49.902;8.590;2023-04-15T00:13:12;2.77;;;2.20;;
7493;SDS011;3788;49.902;8.590;2023-04-15T00:15:39;2.10;;;1.90;;
7493;SDS011;3788;49.902;8.590;2023-04-15T00:18:06;2.30;;;1.83;;
7493;SDS011;3788;49.902;8.590;2023-04-15T00:20:33;3.50;;;2.07;;
7493;SDS011;3788;49.902;8.590;2023-04-15T00:23:01;2.40;;;2.20;;
7493;SDS011;3788;49.902;8.590;2023-04-15T00:25:29;2.33;;;2.13;;
7493;SDS011;3788;49.902;8.590;2023-04-15T00:27:56;2.60;;;2.13;;
7493;SDS011;3788;49.902;8.590;2023-04-15T00:30:22;2.37;;;2.17;;
7493;SDS011;3788;49.902;8.590;2023-04-15T00:32:49;2.63;;;2.03;;
7493;SDS011;3788;49.902;8.590;2023-04-15T00:35:16;2.70;;;2.03;;
7493;SDS011;3788;49.902;8.590;2023-04-15T00:37:43;2.20;;;2.00;;
7493;SDS011;3788;49.902;8.590;2023-04-15T00:40:10;2.63;;;2.20;;
7493;SDS011;3788;49.902;8.590;2023-04-15T00:42:39;2.60;;;2.40;;
7493;SDS011;3788;49.902;8.590;2023-04-15T00:45:06;2.60;;;2.40;;
7493;SDS011;3788;49.902;8.590;2023-04-15T00:47:34;4.50;;;2.70;;
7493;SDS011;3788;49.902;8.590;2023-04-15T00:50:02;2.90;;;2.30;;
7493;SDS011;3788;49.902;8.590;2023-04-15T00:52:29;2.43;;;2.23;;
7493;SDS011;3788;49.902;8.590;2023-04-15T00:54:56;3.33;;;2.47;;
7493;SDS011;3788;49.902;8.590;2023-04-15T00:57:23;2.93;;;2.60;;
7493;SDS011;3788;49.902;8.590;2023-04-15T00:59:52;3.90;;;2.63;;
7493;SDS011;3788;49.902;8.590;2023-04-15T01:02:20;2.87;;;2.40;;
7493;SDS011;3788;49.902;8.590;2023-04-15T01:04:47;4.80;;;2.80;;
7493;SDS011;3788;49.902;8.590;2023-04-15T01:07:14;4.07;;;3.00;;
7493;SDS011;3788;49.902;8.590;2023-04-15T01:09:41;4.80;;;3.17;;
7493;SDS011;3788;49.902;8.590;2023-04-15T01:12:08;4.80;;;3.07;;
7493;SDS011;3788;49.902;8.590;2023-04-15T01:14:37;3.67;;;2.87;;
7493;SDS011;3788;49.902;8.590;2023-04-15T01:17:05;3.30;;;3.00;;
7493;SDS011;3788;49.902;8.590;2023-04-15T01:19:32;4.23;;;3.13;;
7493;SDS011;3788;49.902;8.590;2023-04-15T01:21:59;3.17;;;2.87;;
7493;SDS011;3788;49.902;8.590;2023-04-15T01:24:29;6.93;;;3.53;;
7493;SDS011;3788;49.902;8.590;2023-04-15T01:26:58;2.93;;;2.50;;
7493;SDS011;3788;49.902;8.590;2023-04-15T01:29:25;4.07;;;2.70;;
7493;SDS011;3788;49.902;8.590;2023-04-15T01:31:53;4.17;;;2.93;;
7493;SDS011;3788;49.902;8.590;2023-04-15T01:34:20;6.17;;;3.00;;
7493;SDS011;3788;49.902;8.590;2023-04-15T01:36:47;4.60;;;2.97;;
7493;SDS011;3788;49.902;8.590;2023-04-15T01:39:14;4.00;;;2.70;;
7493;SDS011;3788;49.902;8.590;2023-04-15T01:41:41;2.57;;;2.33;;
7493;SDS011;3788;49.902;8.590;2023-04-15T01:44:09;5.60;;;2.63;;
7493;SDS011;3788;49.902;8.590;2023-04-15T01:46:36;2.60;;;2.40;;
7493;SDS011;3788;49.902;8.590;2023-04-15T01:49:03;2.80;;;2.40;;
7493;SDS011;3788;49.902;8.590;2023-04-15T01:51:30;3.43;;;2.93;;
7493;SDS011;3788;49.902;8.590;2023-04-15T01:53:57;3.43;;;2.73;;
7493;SDS011;3788;49.902;8.590;2023-04-15T01:56:23;5.00;;;3.20;;
7493;SDS011;3788;49.902;8.590;2023-04-15T01:58:50;6.13;;;3.30;;
7493;SDS011;3788;49.902;8.590;2023-04-15T02:01:19;3.33;;;3.03;;
7493;SDS011;3788;49.902;8.590;2023-04-15T02:03:46;4.17;;;3.77;;
7493;SDS011;3788;49.902;8.590;2023-04-15T02:06:12;4.20;;;2.93;;
7493;SDS011;3788;49.902;8.590;2023-04-15T02:08:39;4.27;;;2.93;;
7493;SDS011;3788;49.902;8.590;2023-04-15T02:11:06;4.27;;;3.47;;
7493;SDS011;3788;49.902;8.590;2023-04-15T02:13:33;4.47;;;3.10;;
7493;SDS011;3788;49.902;8.590;2023-04-15T02:16:00;3.07;;;2.80;;
7493;SDS011;3788;49.902;8.590;2023-04-15T02:18:28;3.30;;;2.70;;
7493;SDS011;3788;49.902;8.590;2023-04-15T02:20:55;4.90;;;3.00;;
7493;SDS011;3788;49.902;8.590;2023-04-15T02:23:22;3.00;;;2.67;;
7493;SDS011;3788;49.902;8.590;2023-04-15T02:25:49;3.27;;;2.70;;
7493;SDS011;3788;49.902;8.590;2023-04-15T02:28:16;3.30;;;2.83;;
7493;SDS011;3788;49.902;8.590;2023-04-15T02:30:42;3.63;;;2.90;;
7493;SDS011;3788;49.902;8.590;2023-04-15T02:33:12;3.53;;;3.10;;
7493;SDS011;3788;49.902;8.590;2023-04-15T02:35:41;2.83;;;2.63;;
7493;SDS011;3788;49.902;8.590;2023-04-15T02:38:09;3.13;;;2.57;;
7493;SDS011;3788;49.902;8.590;2023-04-15T02:40:36;3.17;;;2.87;;
7493;SDS011;3788;49.902;8.590;2023-04-15T02:43:03;3.13;;;2.83;;
7493;SDS011;3788;49.902;8.590;2023-04-15T02:45:31;3.37;;;3.03;;
7493;SDS011;3788;49.902;8.590;2023-04-15T02:47:57;3.07;;;2.77;;
7493;SDS011;3788;49.902;8.590;2023-04-15T02:50:27;3.83;;;2.70;;
7493;SDS011;3788;49.902;8.590;2023-04-15T02:52:57;3.70;;;2.83;;
7493;SDS011;3788;49.902;8.590;2023-04-15T02:55:25;4.23;;;3.23;;
7493;SDS011;3788;49.902;8.590;2023-04-15T02:57:51;3.20;;;2.90;;
7493;SDS011;3788;49.902;8.590;2023-04-15T03:00:18;3.33;;;2.83;;
7493;SDS011;3788;49.902;8.590;2023-04-15T03:02:45;5.50;;;3.10;;
7493;SDS011;3788;49.902;8.590;2023-04-15T03:05:16;3.30;;;3.00;;
7493;SDS011;3788;49.902;8.590;2023-04-15T03:07:42;4.97;;;3.30;;
7493;SDS011;3788;49.902;8.590;2023-04-15T03:10:10;2.93;;;2.70;;
7493;SDS011;3788;49.902;8.590;2023-04-15T03:12:37;3.30;;;3.00;;
7493;SDS011;3788;49.902;8.590;2023-04-15T03:15:05;3.30;;;3.00;;
7493;SDS011;3788;49.902;8.590;2023-04-15T03:17:32;3.40;;;3.10;;
7493;SDS011;3788;49.902;8.590;2023-04-15T03:20:00;3.30;;;3.00;;
7493;SDS011;3788;49.902;8.590;2023-04-15T03:22:27;3.20;;;2.90;;
7493;SDS011;3788;49.902;8.590;2023-04-15T03:24:53;3.23;;;2.93;;
7493;SDS011;3788;49.902;8.590;2023-04-15T03:27:21;2.93;;;2.73;;
7493;SDS011;3788;49.902;8.590;2023-04-15T03:29:48;3.10;;;2.80;;
7493;SDS011;3788;49.902;8.590;2023-04-15T03:32:15;3.60;;;2.80;;
7493;SDS011;3788;49.902;8.590;2023-04-15T03:34:42;4.13;;;2.63;;
7493;SDS011;3788;49.902;8.590;2023-04-15T03:37:09;3.03;;;2.73;;
7493;SDS011;3788;49.902;8.590;2023-04-15T03:39:35;3.03;;;2.60;;
7493;SDS011;3788;49.902;8.590;2023-04-15T03:42:02;3.00;;;2.63;;
7493;SDS011;3788;49.902;8.590;2023-04-15T03:44:30;3.17;;;2.53;;
7493;SDS011;3788;49.902;8.590;2023-04-15T03:46:57;3.20;;;2.90;;
7493;SDS011;3788;49.902;8.590;2023-04-15T03:49:24;4.33;;;2.97;;
7493;SDS011;3788;49.902;8.590;2023-04-15T03:51:51;4.07;;;3.23;;
7493;SDS011;3788;49.902;8.590;2023-04-15T03:54:18;2.63;;;2.43;;
7493;SDS011;3788;49.902;8.590;2023-04-15T03:56:44;3.27;;;2.90;;
7493;SDS011;3788;49.902;8.590;2023-04-15T03:59:11;4.13;;;3.20;;
7493;SDS011;3788;49.902;8.590;2023-04-15T04:01:39;3.00;;;2.73;;
7493;SDS011;3788;49.902;8.590;2023-04-15T04:04:06;3.10;;;2.80;;
7493;SDS011;3788;49.902;8.590;2023-04-15T04:06:33;2.97;;;2.73;;
7493;SDS011;3788;49.902;8.590;2023-04-15T04:08:59;3.40;;;3.10;;
7493;SDS011;3788;49.902;8.590;2023-04-15T04:11:26;4.33;;;3.27;;
7493;SDS011;3788;49.902;8.590;2023-04-15T04:13:53;4.37;;;2.97;;
7493;SDS011;3788;49.902;8.590;2023-04-15T04:16:20;2.93;;;2.67;;
7493;SDS011;3788;49.902;8.590;2023-04-15T04:18:48;3.47;;;2.50;;
7493;SDS011;3788;49.902;8.590;2023-04-15T04:21:15;3.30;;;3.00;;
7493;SDS011;3788;49.902;8.590;2023-04-15T04:23:42;3.57;;;3.27;;
7493;SDS011;3788;49.902;8.590;2023-04-15T04:26:08;2.70;;;2.40;;
7493;SDS011;3788;49.902;8.590;2023-04-15T04:28:35;2.87;;;2.60;;
7493;SDS011;3788;49.902;8.590;2023-04-15T04:31:03;3.17;;;2.87;;
7493;SDS011;3788;49.902;8.590;2023-04-15T04:33:30;2.73;;;2.43;;
7493;SDS011;3788;49.902;8.590;2023-04-15T04:35:58;3.00;;;2.70;;
7493;SDS011;3788;49.902;8.590;2023-04-15T04:38:25;3.47;;;2.93;;
7493;SDS011;3788;49.902;8.590;2023-04-15T04:40:52;3.00;;;2.77;;
7493;SDS011;3788;49.902;8.590;2023-04-15T04:43:19;3.40;;;3.10;;
7493;SDS011;3788;49.902;8.590;2023-04-15T04:45:45;5.27;;;3.10;;
7493;SDS011;3788;49.902;8.590;2023-04-15T04:48:12;3.73;;;3.43;;
7493;SDS011;3788;49.902;8.590;2023-04-15T04:50:39;2.63;;;2.43;;
7493;SDS011;3788;49.902;8.590;2023-04-15T04:53:07;3.67;;;3.37;;
7493;SDS011;3788;49.902;8.590;2023-04-15T04:55:34;3.07;;;2.73;;
7493;SDS011;3788;49.902;8.590;2023-04-15T04:58:01;4.03;;;2.87;;
7493;SDS011;3788;49.902;8.590;2023-04-15T05:00:28;3.60;;;3.20;;
7493;SDS011;3788;49.902;8.590;2023-04-15T05:02:54;3.37;;;3.07;;
7493;SDS011;3788;49.902;8.590;2023-04-15T05:05:21;3.10;;;2.80;;
7493;SDS011;3788;49.902;8.590;2023-04-15T05:07:48;4.00;;;3.50;;
7493;SDS011;3788;49.902;8.590;2023-04-15T05:10:16;3.37;;;3.00;;
7493;SDS011;3788;49.902;8.590;2023-04-15T05:12:43;3.80;;;2.63;;
7493;SDS011;3788;49.902;8.590;2023-04-15T05:15:10;3.40;;;2.77;;
7493;SDS011;3788;49.902;8.590;2023-04-15T05:17:37;3.13;;;2.83;;
7493;SDS011;3788;49.902;8.590;2023-04-15T05:20:04;2.67;;;2.47;;
7493;SDS011;3788;49.902;8.590;2023-04-15T05:22:31;3.50;;;2.90;;
7493;SDS011;3788;49.902;8.590;2023-04-15T05:24:58;2.77;;;2.57;;
7493;SDS011;3788;49.902;8.590;2023-04-15T05:27:26;3.60;;;3.30;;
7493;SDS011;3788;49.902;8.590;2023-04-15T05:29:53;4.43;;;3.33;;
7493;SDS011;3788;49.902;8.590;2023-04-15T05:32:20;4.10;;;3.70;;
7493;SDS011;3788;49.902;8.590;2023-04-15T05:34:47;10.87;;;6.90;;
7493;SDS011;3788;49.902;8.590;2023-04-15T05:37:14;17.87;;;8.30;;
7493;SDS011;3788;49.902;8.590;2023-04-15T05:39:40;18.30;;;8.93;;
7493;SDS011;3788;49.902;8.590;2023-04-15T05:42:07;11.70;;;6.90;;
7493;SDS011;3788;49.902;8.590;2023-04-15T05:44:35;14.87;;;8.00;;
7493;SDS011;3788;49.902;8.590;2023-04-15T05:47:01;10.57;;;5.80;;
7493;SDS011;3788;49.902;8.590;2023-04-15T05:49:29;7.37;;;5.17;;
7493;SDS011;3788;49.902;8.590;2023-04-15T05:51:57;7.50;;;5.60;;
7493;SDS011;3788;49.902;8.590;2023-04-15T05:54:23;6.27;;;4.90;;
7493;SDS011;3788;49.902;8.590;2023-04-15T05:56:51;6.00;;;4.93;;
7493;SDS011;3788;49.902;8.590;2023-04-15T05:59:18;5.13;;;3.97;;
7493;SDS011;3788;49.902;8.590;2023-04-15T06:01:46;4.93;;;4.23;;
7493;SDS011;3788;49.902;8.590;2023-04-15T06:04:13;4.07;;;3.67;;
7493;SDS011;3788;49.902;8.590;2023-04-15T06:06:39;4.70;;;3.67;;
7493;SDS011;3788;49.902;8.590;2023-04-15T06:09:06;5.57;;;3.90;;
7493;SDS011;3788;49.902;8.590;2023-04-15T06:11:33;4.93;;;3.70;;
7493;SDS011;3788;49.902;8.590;2023-04-15T06:13:59;4.67;;;3.70;;
7493;SDS011;3788;49.902;8.590;2023-04-15T06:16:26;3.60;;;3.30;;
7493;SDS011;3788;49.902;8.590;2023-04-15T06:18:54;4.50;;;3.83;;
7493;SDS011;3788;49.902;8.590;2023-04-15T06:21:22;3.97;;;3.53;;
7493;SDS011;3788;49.902;8.590;2023-04-15T06:23:49;4.03;;;3.13;;
7493;SDS011;3788;49.902;8.590;2023-04-15T06:26:16;3.67;;;3.37;;
7493;SDS011;3788;49.902;8.590;2023-04-15T06:28:42;3.87;;;3.57;;
7493;SDS011;3788;49.902;8.590;2023-04-15T06:31:09;5.93;;;3.80;;
7493;SDS011;3788;49.902;8.590;2023-04-15T06:33:36;3.47;;;3.17;;
7493;SDS011;3788;49.902;8.590;2023-04-15T06:36:05;5.30;;;4.23;;
7493;SDS011;3788;49.902;8.590;2023-04-15T06:38:32;4.17;;;3.70;;
7493;SDS011;3788;49.902;8.590;2023-04-15T06:40:58;4.13;;;3.70;;
7493;SDS011;3788;49.902;8.590;2023-04-15T06:43:25;4.50;;;3.70;;
7493;SDS011;3788;49.902;8.590;2023-04-15T06:45:52;4.47;;;3.40;;
7493;SDS011;3788;49.902;8.590;2023-04-15T06:48:19;3.90;;;3.60;;
7493;SDS011;3788;49.902;8.590;2023-04-15T06:50:47;3.87;;;3.33;;
7493;SDS011;3788;49.902;8.590;2023-04-15T06:53:15;3.60;;;3.30;;
7493;SDS011;3788;49.902;8.590;2023-04-15T06:55:42;3.87;;;3.57;;
7493;SDS011;3788;49.902;8.590;2023-04-15T06:58:09;6.63;;;3.53;;
7493;SDS011;3788;49.902;8.590;2023-04-15T07:00:35;4.33;;;3.60;;
7493;SDS011;3788;49.902;8.590;2023-04-15T07:03:03;3.97;;;3.50;;
7493;SDS011;3788;49.902;8.590;2023-04-15T07:05:30;3.40;;;3.10;;
7493;SDS011;3788;49.902;8.590;2023-04-15T07:07:57;3.87;;;3.47;;
7493;SDS011;3788;49.902;8.590;2023-04-15T07:10:25;3.60;;;3.30;;
7493;SDS011;3788;49.902;8.590;2023-04-15T07:12:52;4.83;;;3.43;;
7493;SDS011;3788;49.902;8.590;2023-04-15T07:15:19;3.77;;;3.47;;
7493;SDS011;3788;49.902;8.590;2023-04-15T07:17:46;3.90;;;3.53;;
7493;SDS011;3788;49.902;8.590;2023-04-15T07:20:13;3.80;;;3.50;;
7493;SDS011;3788;49.902;8.590;2023-04-15T07:22:40;3.37;;;3.07;;
7493;SDS011;3788;49.902;8.590;2023-04-15T07:25:07;3.33;;;3.03;;
7493;SDS011;3788;49.902;8.590;2023-04-15T07:27:35;3.93;;;3.57;;
7493;SDS011;3788;49.902;8.590;2023-04-15T07:30:02;3.90;;;3.47;;
7493;SDS011;3788;49.902;8.590;2023-04-15T07:32:30;4.40;;;3.90;;
7493;SDS011;3788;49.902;8.590;2023-04-15T07:34:57;4.50;;;4.10;;
7493;SDS011;3788;49.902;8.590;2023-04-15T07:37:24;4.30;;;3.87;;
7493;SDS011;3788;49.902;8.590;2023-04-15T07:39:50;5.83;;;4.07;;
7493;SDS011;3788;49.902;8.590;2023-04-15T07:42:17;4.33;;;3.93;;
7493;SDS011;3788;49.902;8.590;2023-04-15T07:44:45;4.70;;;4.30;;
7493;SDS011;3788;49.902;8.590;2023-04-15T07:47:12;4.37;;;3.80;;
7493;SDS011;3788;49.902;8.590;2023-04-15T07:49:40;3.37;;;3.07;;
7493;SDS011;3788;49.902;8.590;2023-04-15T07:52:07;3.50;;;2.77;;
7493;SDS011;3788;49.902;8.590;2023-04-15T07:54:34;5.23;;;3.60;;
7493;SDS011;3788;49.902;8.590;2023-04-15T07:57:00;3.67;;;3.37;;
7493;SDS011;3788;49.902;8.590;2023-04-15T07:59:28;3.33;;;2.60;;
7493;SDS011;3788;49.902;8.590;2023-04-15T08:01:59;3.57;;;3.10;;
7493;SDS011;3788;49.902;8.590;2023-04-15T08:04:25;3.67;;;3.37;;
7493;SDS011;3788;49.902;8.590;2023-04-15T08:06:52;4.17;;;2.97;;
7493;SDS011;3788;49.902;8.590;2023-04-15T08:09:19;4.87;;;4.37;;
7493;SDS011;3788;49.902;8.590;2023-04-15T08:11:47;5.03;;;4.63;;
7493;SDS011;3788;49.902;8.590;2023-04-15T08:14:14;3.97;;;3.53;;
7493;SDS011;3788;49.902;8.590;2023-04-15T08:16:41;6.03;;;4.43;;
7493;SDS011;3788;49.902;8.590;2023-04-15T08:19:10;6.13;;;5.20;;
7493;SDS011;3788;49.902;8.590;2023-04-15T08:21:37;4.90;;;3.90;;
7493;SDS011;3788;49.902;8.590;2023-04-15T08:24:04;3.37;;;3.07;;
7493;SDS011;3788;49.902;8.590;2023-04-15T08:26:31;5.13;;;3.87;;
7493;SDS011;3788;49.902;8.590;2023-04-15T08:28:59;5.10;;;4.17;;
7493;SDS011;3788;49.902;8.590;2023-04-15T08:31:25;4.90;;;4.50;;
7493;SDS011;3788;49.902;8.590;2023-04-15T08:33:55;5.23;;;3.53;;
7493;SDS011;3788;49.902;8.590;2023-04-15T08:36:23;4.30;;;3.90;;
7493;SDS011;3788;49.902;8.590;2023-04-15T08:38:51;4.90;;;4.40;;
7493;SDS011;3788;49.902;8.590;2023-04-15T08:41:20;3.80;;;3.50;;
7493;SDS011;3788;49.902;8.590;2023-04-15T08:43:50;6.17;;;4.50;;
7493;SDS011;3788;49.902;8.590;2023-04-15T08:46:18;4.10;;;3.80;;
7493;SDS011;3788;49.902;8.590;2023-04-15T08:48:46;5.77;;;5.10;;
7493;SDS011;3788;49.902;8.590;2023-04-15T08:51:13;4.27;;;3.87;;
7493;SDS011;3788;49.902;8.590;2023-04-15T08:53:43;5.27;;;4.00;;
7493;SDS011;3788;49.902;8.590;2023-04-15T08:56:11;4.60;;;3.23;;
7493;SDS011;3788;49.902;8.590;2023-04-15T08:58:40;4.30;;;3.90;;
7493;SDS011;3788;49.902;8.590;2023-04-15T09:01:08;2.97;;;2.63;;
7493;SDS011;3788;49.902;8.590;2023-04-15T09:03:36;3.27;;;2.97;;
7493;SDS011;3788;49.902;8.590;2023-04-15T09:06:03;3.97;;;3.57;;
7493;SDS011;3788;49.902;8.590;2023-04-15T09:08:31;3.73;;;3.43;;
7493;SDS011;3788;49.902;8.590;2023-04-15T09:10:59;3.90;;;3.10;;
7493;SDS011;3788;49.902;8.590;2023-04-15T09:13:26;3.80;;;3.33;;
7493;SDS011;3788;49.902;8.590;2023-04-15T09:15:53;3.57;;;2.60;;
7493;SDS011;3788;49.902;8.590;2023-04-15T09:18:26;3.63;;;2.27;;
7493;SDS011;3788;49.902;8.590;2023-04-15T09:20:54;2.70;;;2.50;;
7493;SDS011;3788;49.902;8.590;2023-04-15T09:23:21;3.13;;;2.60;;
7493;SDS011;3788;49.902;8.590;2023-04-15T09:25:48;2.87;;;2.40;;
7493;SDS011;3788;49.902;8.590;2023-04-15T09:28:22;2.47;;;2.27;;
7493;SDS011;3788;49.902;8.590;2023-04-15T09:30:50;3.27;;;2.27;;
7493;SDS011;3788;49.902;8.590;2023-04-15T09:33:20;2.73;;;1.80;;
7493;SDS011;3788;49.902;8.590;2023-04-15T09:35:55;2.30;;;1.90;;
7493;SDS011;3788;49.902;8.590;2023-04-15T09:38:23;2.43;;;2.17;;
7493;SDS011;3788;49.902;8.590;2023-04-15T09:40:49;3.47;;;2.50;;
7493;SDS011;3788;49.902;8.590;2023-04-15T09:43:17;3.27;;;2.30;;
7493;SDS011;3788;49.902;8.590;2023-04-15T09:45:48;2.67;;;2.30;;
7493;SDS011;3788;49.902;8.590;2023-04-15T09:48:16;2.27;;;1.43;;
7493;SDS011;3788;49.902;8.590;2023-04-15T09:50:46;2.30;;;2.10;;
7493;SDS011;3788;49.902;8.590;2023-04-15T09:53:17;2.30;;;2.10;;
7493;SDS011;3788;49.902;8.590;2023-04-15T09:55:45;3.00;;;2.10;;
7493;SDS011;3788;49.902;8.590;2023-04-15T09:58:19;2.30;;;2.03;;
7493;SDS011;3788;49.902;8.590;2023-04-15T10:00:47;2.13;;;1.53;;
7493;SDS011;3788;49.902;8.590;2023-04-15T10:03:16;1.97;;;1.77;;
7493;SDS011;3788;49.902;8.590;2023-04-15T10:05:45;5.03;;;1.77;;
7493;SDS011;3788;49.902;8.590;2023-04-15T10:08:14;3.60;;;1.97;;
7493;SDS011;3788;49.902;8.590;2023-04-15T10:10:43;2.10;;;1.47;;
7493;SDS011;3788;49.902;8.590;2023-04-15T10:13:10;2.67;;;2.13;;
7493;SDS011;3788;49.902;8.590;2023-04-15T10:15:39;1.80;;;1.70;;
7493;SDS011;3788;49.902;8.590;2023-04-15T10:18:09;2.97;;;1.60;;
7493;SDS011;3788;49.902;8.590;2023-04-15T10:20:38;2.90;;;2.50;;
7493;SDS011;3788;49.902;8.590;2023-04-15T10:23:07;2.30;;;2.10;;
7493;SDS011;3788;49.902;8.590;2023-04-15T10:25:34;2.57;;;2.27;;
7493;SDS011;3788;49.902;8.590;2023-04-15T10:28:02;2.70;;;2.47;;
7493;SDS011;3788;49.902;8.590;2023-04-15T10:30:31;3.10;;;2.10;;
7493;SDS011;3788;49.902;8.590;2023-04-15T10:32:59;1.70;;;1.60;;
7493;SDS011;3788;49.902;8.590;2023-04-15T10:35:28;2.50;;;2.30;;
7493;SDS011;3788;49.902;8.590;2023-04-15T10:37:55;2.47;;;2.27;;
7493;SDS011;3788;49.902;8.590;2023-04-15T10:40:26;2.43;;;2.23;;
7493;SDS011;3788;49.902;8.590;2023-04-15T10:42:56;1.93;;;1.83;;
7493;SDS011;3788;49.902;8.590;2023-04-15T10:45:24;2.30;;;1.90;;
7493;SDS011;3788;49.902;8.590;2023-04-15T10:47:53;2.17;;;1.73;;
7493;SDS011;3788;49.902;8.590;2023-04-15T10:50:23;2.97;;;1.97;;
7493;SDS011;3788;49.902;8.590;2023-04-15T10:52:51;2.00;;;1.63;;
7493;SDS011;3788;49.902;8.590;2023-04-15T10:55:19;2.30;;;1.70;;
7493;SDS011;3788;49.902;8.590;2023-04-15T10:57:50;3.00;;;1.80;;
7493;SDS011;3788;49.902;8.590;2023-04-15T11:00:18;3.70;;;1.73;;
7493;SDS011;3788;49.902;8.590;2023-04-15T11:02:46;2.27;;;1.80;;
7493;SDS011;3788;49.902;8.590;2023-04-15T11:05:17;1.87;;;1.77;;
7493;SDS011;3788;49.902;8.590;2023-04-15T11:07:53;1.90;;;1.80;;
7493;SDS011;3788;49.902;8.590;2023-04-15T11:13:19;2.03;;;1.83;;
7493;SDS011;3788;49.902;8.590;2023-04-15T11:15:56;1.73;;;1.63;;
7493;SDS011;3788;49.902;8.590;2023-04-15T11:18:25;1.83;;;1.50;;
7493;SDS011;3788;49.902;8.590;2023-04-15T11:20:55;2.00;;;1.80;;
7493;SDS011;3788;49.902;8.590;2023-04-15T11:23:28;2.57;;;2.10;;
7493;SDS011;3788;49.902;8.590;2023-04-15T11:25:57;2.17;;;2.00;;
7493;SDS011;3788;49.902;8.590;2023-04-15T11:28:25;3.20;;;2.90;;
7493;SDS011;3788;49.902;8.590;2023-04-15T11:30:52;3.43;;;2.57;;
7493;SDS011;3788;49.902;8.590;2023-04-15T11:33:20;1.93;;;1.80;;
7493;SDS011;3788;49.902;8.590;2023-04-15T11:35:47;2.80;;;1.97;;
7493;SDS011;3788;49.902;8.590;2023-04-15T11:38:14;2.83;;;1.87;;
7493;SDS011;3788;49.902;8.590;2023-04-15T11:40:43;1.60;;;1.50;;
7493;SDS011;3788;49.902;8.590;2023-04-15T11:43:11;2.07;;;1.37;;
7493;SDS011;3788;49.902;8.590;2023-04-15T11:45:46;1.50;;;1.40;;
7493;SDS011;3788;49.902;8.590;2023-04-15T11:48:15;1.37;;;1.27;;
7493;SDS011;3788;49.902;8.590;2023-04-15T11:50:42;2.13;;;1.83;;
7493;SDS011;3788;49.902;8.590;2023-04-15T11:53:09;1.63;;;1.33;;
7493;SDS011;3788;49.902;8.590;2023-04-15T11:55:42;1.90;;;1.13;;
7493;SDS011;3788;49.902;8.590;2023-04-15T11:58:10;1.30;;;1.20;;
7493;SDS011;3788;49.902;8.590;2023-04-15T12:00:39;2.70;;;1.33;;
7493;SDS011;3788;49.902;8.590;2023-04-15T12:03:13;1.20;;;1.10;;
7493;SDS011;3788;49.902;8.590;2023-04-15T12:06:01;1.30;;;1.20;;
7493;SDS011;3788;49.902;8.590;2023-04-15T12:14:20;1.27;;;0.80;;
7493;SDS011;3788;49.902;8.590;2023-04-15T12:16:50;2.40;;;1.23;;
7493;SDS011;3788;49.902;8.590;2023-04-15T12:19:21;1.10;;;1.00;;
7493;SDS011;3788;49.902;8.590;2023-04-15T12:21:50;1.63;;;1.03;;
7493;SDS011;3788;49.902;8.590;2023-04-15T12:24:19;1.03;;;1.03;;
7493;SDS011;3788;49.902;8.590;2023-04-15T12:26:49;1.87;;;1.70;;
7493;SDS011;3788;49.902;8.590;2023-04-15T12:29:17;2.50;;;1.90;;
7493;SDS011;3788;49.902;8.590;2023-04-15T12:31:47;1.50;;;1.20;;
7493;SDS011;3788;49.902;8.590;2023-04-15T12:34:15;2.00;;;1.70;;
7493;SDS011;3788;49.902;8.590;2023-04-15T12:36:43;2.90;;;1.97;;
7493;SDS011;3788;49.902;8.590;2023-04-15T12:39:10;2.87;;;1.87;;
7493;SDS011;3788;49.902;8.590;2023-04-15T12:41:37;3.00;;;2.47;;
7493;SDS011;3788;49.902;8.590;2023-04-15T12:44:06;2.83;;;2.63;;
7493;SDS011;3788;49.902;8.590;2023-04-15T12:46:33;2.37;;;2.17;;
7493;SDS011;3788;49.902;8.590;2023-04-15T12:49:00;2.13;;;1.93;;
7493;SDS011;3788;49.902;8.590;2023-04-15T12:51:27;2.87;;;2.10;;
7493;SDS011;3788;49.902;8.590;2023-04-15T12:53:53;3.17;;;2.47;;
7493;SDS011;3788;49.902;8.590;2023-04-15T12:56:20;3.50;;;1.87;;
7493;SDS011;3788;49.902;8.590;2023-04-15T12:58:47;1.90;;;1.60;;
7493;SDS011;3788;49.902;8.590;2023-04-15T13:01:16;2.90;;;2.07;;
7493;SDS011;3788;49.902;8.590;2023-04-15T13:03:43;2.23;;;1.70;;
7493;SDS011;3788;49.902;8.590;2023-04-15T13:06:10;2.00;;;1.83;;
7493;SDS011;3788;49.902;8.590;2023-04-15T13:08:37;1.70;;;1.60;;
7493;SDS011;3788;49.902;8.590;2023-04-15T13:11:03;2.50;;;1.60;;
7493;SDS011;3788;49.902;8.590;2023-04-15T13:13:30;2.70;;;2.00;;
7493;SDS011;3788;49.902;8.590;2023-04-15T13:15:58;1.77;;;1.67;;
7493;SDS011;3788;49.902;8.590;2023-04-15T13:18:26;1.70;;;1.60;;
7493;SDS011;3788;49.902;8.590;2023-04-15T13:20:55;2.00;;;1.80;;
7493;SDS011;3788;49.902;8.590;2023-04-15T13:23:21;1.90;;;1.70;;
7493;SDS011;3788;49.902;8.590;2023-04-15T13:25:48;1.53;;;1.40;;
7493;SDS011;3788;49.902;8.590;2023-04-15T13:28:15;1.50;;;1.40;;
7493;SDS011;3788;49.902;8.590;2023-04-15T13:30:41;1.50;;;1.40;;
7493;SDS011;3788;49.902;8.590;2023-04-15T13:33:09;2.80;;;1.80;;
7493;SDS011;3788;49.902;8.590;2023-04-15T13:35:38;1.40;;;1.30;;
7493;SDS011;3788;49.902;8.590;2023-04-15T13:38:05;1.13;;;1.10;;
7493;SDS011;3788;49.902;8.590;2023-04-15T13:40:31;1.40;;;1.30;;
7493;SDS011;3788;49.902;8.590;2023-04-15T13:42:58;1.33;;;1.23;;
7493;SDS011;3788;49.902;8.590;2023-04-15T13:45:24;1.10;;;1.10;;
7493;SDS011;3788;49.902;8.590;2023-04-15T13:47:51;1.67;;;1.10;;
7493;SDS011;3788;49.902;8.590;2023-04-15T13:50:18;1.20;;;1.10;;
7493;SDS011;3788;49.902;8.590;2023-04-15T13:52:46;1.20;;;1.10;;
7493;SDS011;3788;49.902;8.590;2023-04-15T13:55:13;1.00;;;1.00;;
7493;SDS011;3788;49.902;8.590;2023-04-15T13:57:40;1.00;;;1.00;;
7493;SDS011;3788;49.902;8.590;2023-04-15T14:00:07;1.10;;;1.00;;
7493;SDS011;3788;49.902;8.590;2023-04-15T14:02:35;1.33;;;1.10;;
7493;SDS011;3788;49.902;8.590;2023-04-15T14:05:01;1.27;;;1.20;;
7493;SDS011;3788;49.902;8.590;2023-04-15T14:07:28;1.70;;;1.07;;
7493;SDS011;3788;49.902;8.590;2023-04-15T14:09:57;1.27;;;1.17;;
7493;SDS011;3788;49.902;8.590;2023-04-15T14:12:23;1.10;;;1.10;;
7493;SDS011;3788;49.902;8.590;2023-04-15T14:14:50;1.03;;;1.00;;
7493;SDS011;3788;49.902;8.590;2023-04-15T14:17:17;1.00;;;1.00;;
7493;SDS011;3788;49.902;8.590;2023-04-15T14:19:43;0.90;;;0.90;;
7493;SDS011;3788;49.902;8.590;2023-04-15T14:22:10;0.87;;;0.87;;
7493;SDS011;3788;49.902;8.590;2023-04-15T14:24:37;0.90;;;0.90;;
7493;SDS011;3788;49.902;8.590;2023-04-15T14:27:05;1.13;;;1.03;;
7493;SDS011;3788;49.902;8.590;2023-04-15T14:29:32;0.90;;;0.90;;
7493;SDS011;3788;49.902;8.590;2023-04-15T14:31:59;0.80;;;0.80;;
7493;SDS011;3788;49.902;8.590;2023-04-15T14:34:26;0.90;;;0.90;;
7493;SDS011;3788;49.902;8.590;2023-04-15T14:36:52;1.50;;;1.10;;
7493;SDS011;3788;49.902;8.590;2023-04-15T14:39:19;0.97;;;0.90;;
7493;SDS011;3788;49.902;8.590;2023-04-15T14:41:46;0.80;;;0.80;;
7493;SDS011;3788;49.902;8.590;2023-04-15T14:44:14;0.90;;;0.90;;
7493;SDS011;3788;49.902;8.590;2023-04-15T14:46:40;1.00;;;1.00;;
7493;SDS011;3788;49.902;8.590;2023-04-15T14:49:07;1.03;;;1.00;;
7493;SDS011;3788;49.902;8.590;2023-04-15T14:51:34;1.07;;;1.07;;
7493;SDS011;3788;49.902;8.590;2023-04-15T14:54:01;0.83;;;0.83;;
7493;SDS011;3788;49.902;8.590;2023-04-15T14:56:28;0.70;;;0.70;;
7493;SDS011;3788;49.902;8.590;2023-04-15T14:58:55;1.10;;;1.10;;
7493;SDS011;3788;49.902;8.590;2023-04-15T15:01:23;1.50;;;1.40;;
7493;SDS011;3788;49.902;8.590;2023-04-15T15:03:49;1.23;;;1.20;;
7493;SDS011;3788;49.902;8.590;2023-04-15T15:06:16;1.23;;;1.13;;
7493;SDS011;3788;49.902;8.590;2023-04-15T15:08:43;1.50;;;1.30;;
7493;SDS011;3788;49.902;8.590;2023-04-15T15:11:09;1.10;;;1.10;;
7493;SDS011;3788;49.902;8.590;2023-04-15T15:13:36;1.03;;;1.03;;
7493;SDS011;3788;49.902;8.590;2023-04-15T15:16:03;1.13;;;1.13;;
7493;SDS011;3788;49.902;8.590;2023-04-15T15:18:31;1.40;;;1.30;;
7493;SDS011;3788;49.902;8.590;2023-04-15T15:20:58;1.10;;;1.10;;
7493;SDS011;3788;49.902;8.590;2023-04-15T15:23:25;1.20;;;1.20;;
7493;SDS011;3788;49.902;8.590;2023-04-15T15:25:51;1.00;;;1.00;;